createdAt,value
2019-01-04T00:01:16.366Z,100874.64
2019-01-04T00:03:46.157Z,100863.58
2019-01-04T00:06:55.068Z,100868.82
2019-01-04T00:09:24.736Z,100879.19
2019-01-04T00:12:33.784Z,100864.08
2019-01-04T00:18:17.920Z,100860.11
2019-01-04T00:20:49.551Z,100865.70
2019-01-04T00:23:58.348Z,100863.16
2019-01-04T00:29:30.382Z,100861.27
2019-01-04T00:35:09.235Z,100861.68
2019-01-04T00:37:38.750Z,100855.59
2019-01-04T00:40:09.030Z,100849.41
2019-01-04T00:45:34.729Z,100852.28
2019-01-04T00:51:13.702Z,100852.75
2019-01-04T00:54:22.664Z,100856.98
2019-01-04T00:57:30.262Z,100859.12
2019-01-04T01:00:38.073Z,100858.58
2019-01-04T01:03:45.500Z,100859.73
2019-01-04T01:06:53.260Z,100853.19
2019-01-04T01:10:01.628Z,100850.16
2019-01-04T01:13:09.488Z,100849.77
2019-01-04T01:16:16.863Z,100852.30
2019-01-04T01:19:24.261Z,100863.50
2019-01-04T01:22:50.757Z,100862.59
2019-01-04T01:25:58.478Z,100847.00
2019-01-04T01:29:06.242Z,100849.42
2019-01-04T01:32:13.846Z,100853.31
2019-01-04T01:35:29.565Z,100857.29
2019-01-04T01:38:37.098Z,100854.14
2019-01-04T01:41:45.004Z,100857.80
2019-01-04T01:44:52.700Z,100866.84
2019-01-04T01:48:04.275Z,100868.97
2019-01-04T01:51:00.559Z,100866.84
2019-01-04T01:56:36.875Z,100869.12
2019-01-04T02:02:20.942Z,100872.13
2019-01-04T02:07:51.828Z,100858.62
2019-01-04T02:11:00.565Z,100859.86
2019-01-04T02:13:30.641Z,100865.08
2019-01-04T02:19:09.683Z,100862.48
2019-01-04T02:22:18.651Z,100860.39
2019-01-04T02:24:48.154Z,100857.05
2019-01-04T02:27:37.455Z,100857.94
2019-01-04T02:33:09.890Z,100856.91
2019-01-04T02:35:40.340Z,100855.76
2019-01-04T02:38:49.402Z,100857.50
2019-01-04T02:41:18.954Z,100854.84
2019-01-04T02:44:28.056Z,100849.98
2019-01-04T02:52:35.721Z,100840.72
2019-01-04T02:55:05.316Z,100851.89
2019-01-04T02:58:14.220Z,100847.55
2019-01-04T03:03:45.470Z,100846.44
2019-01-04T03:09:34.942Z,100847.56
2019-01-04T03:18:20.554Z,100854.31
2019-01-04T03:21:29.217Z,100855.70
2019-01-04T03:24:38.052Z,100848.44
2019-01-04T03:30:22.386Z,100844.72
2019-01-04T03:33:31.494Z,100846.59
2019-01-04T03:38:56.763Z,100846.38
2019-01-04T03:41:26.249Z,100839.59
2019-01-04T03:44:35.249Z,100846.09
2019-01-04T03:50:14.035Z,100840.06
2019-01-04T03:52:43.842Z,100848.85
2019-01-04T03:55:13.412Z,100846.31
2019-01-04T04:00:57.457Z,100844.22
2019-01-04T04:06:35.747Z,100850.17
2019-01-04T04:09:44.727Z,100853.59
2019-01-04T04:18:11.278Z,100834.13
2019-01-04T04:21:20.253Z,100829.16
2019-01-04T04:23:50.367Z,100825.53
2019-01-04T04:29:35.052Z,100818.02
2019-01-04T04:32:43.983Z,100811.00
2019-01-04T04:35:14.283Z,100811.35
2019-01-04T04:37:43.661Z,100804.75
2019-01-04T04:40:13.044Z,100807.63
2019-01-04T04:42:42.506Z,100811.44
2019-01-04T04:48:26.221Z,100811.97
2019-01-04T04:57:00.822Z,100812.26
2019-01-04T04:59:30.564Z,100803.87
2019-01-04T05:02:39.339Z,100813.72
2019-01-04T05:05:08.745Z,100814.50
2019-01-04T05:08:17.594Z,100805.80
2019-01-04T05:16:56.871Z,100814.81
2019-01-04T05:22:27.697Z,100810.48
2019-01-04T05:25:36.749Z,100814.27
2019-01-04T05:34:22.339Z,100788.72
2019-01-04T05:39:57.467Z,100790.29
2019-01-04T05:49:01.649Z,100786.30
2019-01-04T05:51:31.234Z,100789.23
2019-01-04T05:54:00.686Z,100788.34
2019-01-04T05:57:09.582Z,100793.06
2019-01-04T05:59:39.107Z,100792.52
2019-01-04T06:05:04.350Z,100789.54
2019-01-04T06:07:33.787Z,100788.61
2019-01-04T06:10:03.208Z,100790.30
2019-01-04T06:12:32.649Z,100790.84
2019-01-04T06:15:02.077Z,100789.44
2019-01-04T06:17:31.426Z,100794.59
2019-01-04T06:20:01.304Z,100790.67
2019-01-04T06:22:30.852Z,100794.91
2019-01-04T06:25:00.402Z,100795.31
2019-01-04T06:27:29.785Z,100794.39
2019-01-04T06:29:59.342Z,100796.98
2019-01-04T06:32:28.910Z,100796.61
2019-01-04T06:34:58.539Z,100794.84
2019-01-04T06:40:43.248Z,100801.81
2019-01-04T06:43:12.847Z,100801.84
2019-01-04T06:46:21.489Z,100800.95
2019-01-04T06:51:52.451Z,100799.66
2019-01-04T06:54:56.977Z,100803.55
2019-01-04T06:57:26.419Z,100805.70
2019-01-04T06:59:55.908Z,100803.11
2019-01-04T07:02:25.471Z,100816.92
2019-01-04T07:04:55.308Z,100816.85
2019-01-04T07:07:24.729Z,100816.34
2019-01-04T07:09:54.496Z,100819.76
2019-01-04T07:12:23.988Z,100824.47
2019-01-04T07:14:53.488Z,100825.70
2019-01-04T07:17:22.900Z,100826.08
2019-01-04T07:19:52.759Z,100822.15
2019-01-04T07:22:22.682Z,100818.55
2019-01-04T07:24:52.181Z,100820.27
2019-01-04T07:27:21.856Z,100820.67
2019-01-04T07:29:52.343Z,100825.88
2019-01-04T07:32:21.841Z,100828.84
2019-01-04T07:34:51.351Z,100834.38
2019-01-04T07:43:41.084Z,100835.64
2019-01-04T07:49:21.082Z,100838.28
2019-01-04T07:51:50.770Z,100838.28
2019-01-04T07:54:20.189Z,100836.53
2019-01-04T07:56:49.795Z,100846.83
2019-01-04T07:59:19.223Z,100840.27
2019-01-04T08:01:48.611Z,100843.68
2019-01-04T08:04:18.011Z,100844.98
2019-01-04T08:13:22.504Z,100858.80
2019-01-04T08:16:22.471Z,100861.36
2019-01-04T08:22:06.729Z,100868.27
2019-01-04T08:24:48.175Z,100867.42
2019-01-04T08:27:37.692Z,100873.50
2019-01-04T08:39:27.198Z,100888.08
2019-01-04T08:41:57.254Z,100891.57
2019-01-04T08:44:26.764Z,100890.85
2019-01-04T08:46:56.660Z,100895.67
2019-01-04T08:49:26.099Z,100899.17
2019-01-04T08:52:34.801Z,100904.78
2019-01-04T08:58:23.799Z,100901.22
2019-01-04T09:00:54.710Z,100910.35
2019-01-04T09:06:19.795Z,100913.39
2019-01-04T09:08:49.819Z,100917.57
2019-01-04T09:11:19.506Z,100915.75
2019-01-04T09:13:49.024Z,100919.14
2019-01-04T09:19:32.452Z,100918.59
2019-01-04T09:22:41.282Z,100921.53
2019-01-04T09:25:11.827Z,100927.15
2019-01-04T09:27:41.686Z,100921.95
2019-01-04T09:30:15.987Z,100921.05
2019-01-04T09:32:45.512Z,100922.77
2019-01-04T09:35:54.503Z,100923.58
2019-01-04T09:41:55.575Z,100934.84
2019-01-04T09:44:25.584Z,100930.16
2019-01-04T09:47:34.602Z,100935.77
2019-01-04T09:53:17.384Z,100929.71
2019-01-04T09:58:36.043Z,100926.30
2019-01-04T10:04:20.915Z,100932.01
2019-01-04T10:06:50.387Z,100933.20
2019-01-04T10:09:19.980Z,100947.88
2019-01-04T10:12:29.128Z,100922.35
2019-01-04T10:20:51.347Z,100936.05
2019-01-04T10:24:00.183Z,100943.06
2019-01-04T10:26:29.733Z,100938.72
2019-01-04T10:28:59.095Z,100938.30
2019-01-04T10:31:28.562Z,100940.05
2019-01-04T10:33:57.967Z,100943.47
2019-01-04T10:39:42.572Z,100947.72
2019-01-04T10:45:31.393Z,100951.20
2019-01-04T10:51:03.380Z,100956.00
2019-01-04T10:53:32.933Z,100957.23
2019-01-04T10:56:02.455Z,100962.36
2019-01-04T10:58:31.988Z,100961.41
2019-01-04T11:01:40.627Z,100964.86
2019-01-04T11:04:49.557Z,100962.27
2019-01-04T11:10:34.745Z,100976.60
2019-01-04T11:13:05.562Z,100985.77
2019-01-04T11:15:35.054Z,100987.10
2019-01-04T11:21:03.541Z,100991.00
2019-01-04T11:24:23.266Z,100979.30
2019-01-04T11:27:01.211Z,100986.63
2019-01-04T11:30:26.580Z,100991.86
2019-01-04T11:33:43.034Z,100987.52
2019-01-04T11:43:11.203Z,100994.08
2019-01-04T11:46:04.267Z,100991.89
2019-01-04T11:48:46.055Z,100997.06
2019-01-04T11:51:53.595Z,100994.94
2019-01-04T11:57:36.897Z,101011.47
2019-01-04T12:03:21.507Z,101017.11
2019-01-04T12:05:50.968Z,101015.05
2019-01-04T12:11:16.018Z,101028.09
2019-01-04T12:14:25.066Z,101032.02
2019-01-04T12:19:51.819Z,101032.21
2019-01-04T12:23:00.547Z,101037.41
2019-01-04T12:25:30.163Z,101041.38
2019-01-04T12:28:00.418Z,101045.62
2019-01-04T12:30:30.063Z,101061.67
2019-01-04T12:32:59.822Z,101049.94
2019-01-04T12:35:29.179Z,101050.83
2019-01-04T12:37:58.694Z,101052.16
2019-01-04T12:40:28.463Z,101056.97
2019-01-04T12:42:57.973Z,101048.66
2019-01-04T12:45:27.537Z,101049.11
2019-01-04T12:47:56.945Z,101048.76
2019-01-04T12:50:26.321Z,101054.41
2019-01-04T12:52:56.703Z,101056.12
2019-01-04T12:55:26.288Z,101062.08
2019-01-04T12:57:56.419Z,101068.55
2019-01-04T13:00:25.834Z,101070.73
2019-01-04T13:02:56.020Z,101062.52
2019-01-04T13:05:25.409Z,101065.56
2019-01-04T13:07:55.241Z,101072.89
2019-01-04T13:10:24.773Z,101064.68
2019-01-04T13:12:54.386Z,101075.94
2019-01-04T13:15:23.762Z,101079.42
2019-01-04T13:18:32.834Z,101086.37
2019-01-04T13:24:17.364Z,101081.17
2019-01-04T13:27:26.445Z,101086.88
2019-01-04T13:30:35.337Z,101095.59
2019-01-04T13:33:04.947Z,101091.25
2019-01-04T13:36:13.830Z,101090.86
2019-01-04T13:41:52.451Z,101094.77
2019-01-04T13:44:21.843Z,101112.07
2019-01-04T13:46:52.102Z,101112.61
2019-01-04T13:50:01.076Z,101103.06
2019-01-04T13:55:32.479Z,101111.39
2019-01-04T13:58:41.384Z,101113.64
2019-01-04T14:01:11.141Z,101116.70
2019-01-04T14:03:40.594Z,101119.95
2019-01-04T14:06:49.508Z,101119.98
2019-01-04T14:12:34.173Z,101129.52
2019-01-04T14:15:43.883Z,101131.31
2019-01-04T14:18:13.835Z,101138.25
2019-01-04T14:20:43.799Z,101138.73
2019-01-04T14:23:52.553Z,101142.65
2019-01-04T14:26:22.236Z,101147.49
2019-01-04T14:28:52.112Z,101145.77
2019-01-04T14:32:01.123Z,101158.35
2019-01-04T14:37:58.525Z,101158.96
2019-01-04T14:43:40.471Z,101159.05
2019-01-04T14:46:10.117Z,101160.40
2019-01-04T14:48:39.900Z,101164.30
2019-01-04T14:51:09.871Z,101162.17
2019-01-04T14:53:39.437Z,101167.91
2019-01-04T14:59:23.891Z,101170.70
2019-01-04T15:01:53.793Z,101174.28
2019-01-04T15:04:23.278Z,101182.23
2019-01-04T15:06:52.767Z,101180.52
2019-01-04T15:09:22.457Z,101180.93
2019-01-04T15:11:51.959Z,101185.70
2019-01-04T15:14:21.813Z,101189.66
2019-01-04T15:16:51.370Z,101204.80
2019-01-04T15:19:21.413Z,101210.45
2019-01-04T15:21:50.865Z,101218.25
2019-01-04T15:24:20.802Z,101222.56
2019-01-04T15:26:50.251Z,101233.31
2019-01-04T15:29:20.096Z,101228.95
2019-01-04T15:31:50.821Z,101243.22
2019-01-04T15:34:20.326Z,101244.08
2019-01-04T15:36:49.801Z,101241.90
2019-01-04T15:39:19.817Z,101266.04
2019-01-04T15:41:49.230Z,101261.30
2019-01-04T15:44:18.639Z,101256.95
2019-01-04T15:46:48.239Z,101262.09
2019-01-04T15:49:18.129Z,101266.00
2019-01-04T15:51:48.027Z,101272.95
2019-01-04T15:54:18.265Z,101268.20
2019-01-04T15:56:47.752Z,101280.30
2019-01-04T15:59:56.459Z,101283.32
2019-01-04T16:02:25.988Z,101285.42
2019-01-04T16:04:57.326Z,101288.52
2019-01-04T16:07:27.144Z,101296.33
2019-01-04T16:09:56.578Z,101285.94
2019-01-04T16:12:28.030Z,101292.88
2019-01-04T16:14:57.992Z,101299.83
2019-01-04T16:17:27.481Z,101307.20
2019-01-04T16:22:55.416Z,101299.07
2019-01-04T16:31:40.709Z,101307.78
2019-01-04T16:34:51.284Z,101316.57
2019-01-04T16:38:00.110Z,101302.34
2019-01-04T16:40:29.833Z,101297.30
2019-01-04T16:42:59.282Z,101302.92
2019-01-04T16:45:28.755Z,101300.79
2019-01-04T16:47:59.593Z,101299.05
2019-01-04T16:50:29.233Z,101301.69
2019-01-04T16:52:59.551Z,101300.86
2019-01-04T16:55:29.395Z,101304.76
2019-01-04T16:57:59.793Z,101305.13
2019-01-04T17:00:29.544Z,101305.13
2019-01-04T17:02:59.277Z,101293.02
2019-01-04T17:05:28.811Z,101302.62
2019-01-04T17:07:58.339Z,101301.31
2019-01-04T17:10:27.805Z,101300.90
2019-01-04T17:12:58.070Z,101308.69
2019-01-04T17:15:27.532Z,101311.74
2019-01-04T17:17:57.389Z,101314.42
2019-01-04T17:20:26.985Z,101317.42
2019-01-04T17:22:56.542Z,101323.41
2019-01-04T17:25:26.492Z,101318.22
2019-01-04T17:27:56.028Z,101335.11
2019-01-04T17:30:25.445Z,101334.23
2019-01-04T17:32:54.939Z,101332.48
2019-01-04T17:36:03.938Z,101349.39
2019-01-04T17:41:48.355Z,101336.51
2019-01-04T17:44:17.866Z,101346.88
2019-01-04T17:46:47.386Z,101339.93
2019-01-04T17:49:16.797Z,101351.69
2019-01-04T17:51:46.243Z,101350.37
2019-01-04T17:54:15.714Z,101364.71
2019-01-04T17:56:45.301Z,101350.44
2019-01-04T17:59:14.794Z,101356.66
2019-01-04T18:01:44.304Z,101357.09
2019-01-04T18:04:13.809Z,101360.55
2019-01-04T18:06:43.375Z,101371.41
2019-01-04T18:09:12.929Z,101364.44
2019-01-04T18:11:42.468Z,101365.28
2019-01-04T18:14:11.896Z,101366.58
2019-01-04T18:16:41.351Z,101377.80
2019-01-04T18:19:11.481Z,101376.52
2019-01-04T18:21:40.912Z,101376.51
2019-01-04T18:24:10.315Z,101381.70
2019-01-04T18:26:39.907Z,101386.03
2019-01-04T18:29:09.316Z,101387.36
2019-01-04T18:31:38.733Z,101391.70
2019-01-04T18:34:08.180Z,101399.02
2019-01-04T18:36:37.704Z,101399.87
2019-01-04T18:39:08.296Z,101392.45
2019-01-04T18:41:37.808Z,101409.41
2019-01-04T18:44:07.230Z,101408.12
2019-01-04T18:46:36.885Z,101399.87
2019-01-04T18:49:06.690Z,101395.58
2019-01-04T18:51:36.178Z,101401.19
2019-01-04T18:54:05.667Z,101408.56
2019-01-04T18:56:35.767Z,101407.26
2019-01-04T18:59:05.310Z,101410.29
2019-01-04T19:01:35.001Z,101426.29
2019-01-04T19:04:04.558Z,101412.87
2019-01-04T19:06:34.211Z,101423.78
2019-01-04T19:09:04.666Z,101433.74
2019-01-04T19:11:34.417Z,101427.69
2019-01-04T19:14:06.381Z,101440.68
2019-01-04T19:16:36.049Z,101434.19
2019-01-04T19:19:05.909Z,101438.05
2019-01-04T19:21:35.418Z,101435.88
2019-01-04T19:24:05.070Z,101434.19
2019-01-04T19:26:34.524Z,101443.27
2019-01-04T19:29:04.182Z,101443.71
2019-01-04T19:31:33.737Z,101444.55
2019-01-04T19:34:03.278Z,101441.95
2019-01-04T19:36:32.723Z,101446.30
2019-01-04T19:39:02.801Z,101452.36
2019-01-04T19:41:32.680Z,101456.69
2019-01-04T19:44:02.066Z,101453.20
2019-01-04T19:46:31.538Z,101459.69
2019-01-04T19:49:01.222Z,101464.86
2019-01-04T19:51:30.896Z,101463.56
2019-01-04T19:54:00.321Z,101460.96
2019-01-04T19:56:29.972Z,101470.48
2019-01-04T19:58:59.720Z,101476.12
2019-01-04T20:01:29.461Z,101472.66
2019-01-04T20:03:59.147Z,101472.23
2019-01-04T20:07:50.049Z,101473.12
2019-01-04T20:11:13.605Z,101483.50
2019-01-04T20:14:49.598Z,101490.42
2019-01-04T20:17:46.271Z,101489.62
2019-01-04T20:20:43.790Z,101490.48
2019-01-04T20:23:32.195Z,101487.54
2019-01-04T20:26:19.335Z,101497.14
2019-01-04T20:29:09.195Z,101494.12
2019-01-04T20:31:57.784Z,101498.86
2019-01-04T20:34:44.961Z,101499.25
2019-01-04T20:37:31.879Z,101504.91
2019-01-04T20:40:38.114Z,101495.84
2019-01-04T20:43:25.009Z,101502.27
2019-01-04T20:46:31.928Z,101505.30
2019-01-04T20:49:29.364Z,101506.59
2019-01-04T20:52:24.359Z,101513.07
2019-01-04T20:55:11.220Z,101506.59
2019-01-04T20:57:58.992Z,101501.83
2019-01-04T21:00:47.928Z,101501.82
2019-01-04T21:03:45.360Z,101529.07
2019-01-04T21:06:33.890Z,101519.56
2019-01-04T21:09:21.158Z,101534.27
2019-01-04T21:12:08.361Z,101556.31
2019-01-04T21:14:56.070Z,101537.61
2019-01-04T21:17:54.596Z,101537.52
2019-01-04T21:20:46.554Z,101554.77
2019-01-04T21:23:53.396Z,101564.72
2019-01-04T21:26:40.750Z,101557.34
2019-01-04T21:29:29.945Z,101561.66
2019-01-04T21:35:13.549Z,101568.10
2019-01-04T21:37:58.127Z,101569.81
2019-01-04T21:40:55.949Z,101570.66
2019-01-04T21:43:56.971Z,101573.72
2019-01-04T21:46:54.691Z,101575.86
2019-01-04T21:49:51.068Z,101579.69
2019-01-04T21:52:51.872Z,101580.13
2019-01-04T21:55:40.320Z,101592.30
2019-01-04T21:58:27.156Z,101592.30
2019-01-04T22:01:15.591Z,101594.91
2019-01-04T22:04:04.123Z,101594.96
2019-01-04T22:06:54.605Z,101610.55
2019-01-04T22:09:58.983Z,101613.22
2019-01-04T22:12:46.034Z,101618.85
2019-01-04T22:15:54.789Z,101626.19
2019-01-04T22:24:39.167Z,101619.86
2019-01-04T22:27:48.237Z,101638.84
2019-01-04T22:30:29.018Z,101642.30
2019-01-04T22:36:32.569Z,101641.44
2019-01-04T22:39:20.896Z,101647.05
2019-01-04T22:45:30.123Z,101658.29
2019-01-04T22:51:26.745Z,101658.22
2019-01-04T22:54:24.648Z,101653.46
2019-01-04T22:57:15.878Z,101656.49
2019-01-04T23:00:04.373Z,101662.53
2019-01-04T23:02:51.837Z,101667.72
2019-01-04T23:05:40.210Z,101667.28
2019-01-04T23:08:27.026Z,101677.18
2019-01-04T23:11:13.901Z,101667.23
2019-01-04T23:14:08.056Z,101674.59
2019-01-04T23:17:11.724Z,101668.52
2019-01-04T23:20:02.817Z,101683.22
2019-01-04T23:22:56.094Z,101686.26
2019-01-04T23:25:42.769Z,101686.26
2019-01-04T23:28:46.289Z,101682.36
2019-01-04T23:31:32.829Z,101682.74
2019-01-04T23:34:36.273Z,101694.91
2019-01-04T23:37:30.517Z,101687.57
2019-01-04T23:40:28.023Z,101694.91
2019-01-04T23:43:19.303Z,101706.60
2019-01-04T23:49:15.301Z,101710.50
2019-01-04T23:52:07.524Z,101709.25
2019-01-04T23:54:54.656Z,101716.13
2019-01-04T23:57:46.469Z,101720.06
